sensor_id;sensor_type;location;lat;lon;timestamp;pressure;altitude;pressure_sealevel;temperature;humidity
71795;BME280;59641;45.188;5.712;2023-02-07T00:00:18;100251.75;;;9.63;44.70
71795;BME280;59641;45.188;5.712;2023-02-07T00:02:45;100246.38;;;9.63;44.64
71795;BME280;59641;45.188;5.712;2023-02-07T00:05:11;100239.97;;;9.64;44.58
71795;BME280;59641;45.188;5.712;2023-02-07T00:07:37;100231.50;;;9.60;44.72
71795;BME280;59641;45.188;5.712;2023-02-07T00:10:04;100234.19;;;9.60;44.33
71795;BME280;59641;45.188;5.712;2023-02-07T00:12:30;100214.16;;;9.56;44.28
71795;BME280;59641;45.188;5.712;2023-02-07T00:14:55;100212.28;;;9.57;44.36
71795;BME280;59641;45.188;5.712;2023-02-07T00:17:21;100224.88;;;9.56;44.32
71795;BME280;59641;45.188;5.712;2023-02-07T00:19:46;100223.22;;;9.55;44.48
71795;BME280;59641;45.188;5.712;2023-02-07T00:22:11;100219.50;;;9.56;44.37
71795;BME280;59641;45.188;5.712;2023-02-07T00:24:37;100231.25;;;9.55;44.10
71795;BME280;59641;45.188;5.712;2023-02-07T00:27:02;100225.25;;;9.53;44.04
71795;BME280;59641;45.188;5.712;2023-02-07T00:29:27;100223.88;;;9.57;44.26
71795;BME280;59641;45.188;5.712;2023-02-07T00:31:53;100227.16;;;9.59;43.91
71795;BME280;59641;45.188;5.712;2023-02-07T00:34:18;100222.84;;;9.58;43.93
71795;BME280;59641;45.188;5.712;2023-02-07T00:36:43;100224.69;;;9.58;44.11
71795;BME280;59641;45.188;5.712;2023-02-07T00:39:14;100231.06;;;9.57;43.95
71795;BME280;59641;45.188;5.712;2023-02-07T00:41:40;100241.16;;;9.55;43.61
71795;BME280;59641;45.188;5.712;2023-02-07T00:44:06;100236.97;;;9.52;43.75
71795;BME280;59641;45.188;5.712;2023-02-07T00:46:32;100237.84;;;9.53;43.92
71795;BME280;59641;45.188;5.712;2023-02-07T00:48:58;100238.84;;;9.52;43.70
71795;BME280;59641;45.188;5.712;2023-02-07T00:51:24;100239.66;;;9.52;43.82
71795;BME280;59641;45.188;5.712;2023-02-07T00:53:51;100243.19;;;9.53;43.68
71795;BME280;59641;45.188;5.712;2023-02-07T00:56:19;100249.38;;;9.53;43.80
71795;BME280;59641;45.188;5.712;2023-02-07T00:58:44;100244.66;;;9.55;43.80
71795;BME280;59641;45.188;5.712;2023-02-07T01:01:10;100235.81;;;9.55;43.79
71795;BME280;59641;45.188;5.712;2023-02-07T01:03:36;100242.34;;;9.52;43.65
71795;BME280;59641;45.188;5.712;2023-02-07T01:06:01;100234.53;;;9.51;43.74
71795;BME280;59641;45.188;5.712;2023-02-07T01:08:26;100241.72;;;9.50;43.54
71795;BME280;59641;45.188;5.712;2023-02-07T01:10:52;100234.91;;;9.48;43.49
71795;BME280;59641;45.188;5.712;2023-02-07T01:13:17;100250.59;;;9.51;43.67
71795;BME280;59641;45.188;5.712;2023-02-07T01:15:44;100239.06;;;9.50;43.60
71795;BME280;59641;45.188;5.712;2023-02-07T01:18:11;100241.72;;;9.50;43.77
71795;BME280;59641;45.188;5.712;2023-02-07T01:20:37;100245.66;;;9.54;43.52
71795;BME280;59641;45.188;5.712;2023-02-07T01:23:03;100247.09;;;9.50;43.48
71795;BME280;59641;45.188;5.712;2023-02-07T01:25:29;100250.34;;;9.46;43.40
71795;BME280;59641;45.188;5.712;2023-02-07T01:27:55;100249.88;;;9.42;43.43
71795;BME280;59641;45.188;5.712;2023-02-07T01:30:21;100244.72;;;9.41;43.51
71795;BME280;59641;45.188;5.712;2023-02-07T01:32:46;100241.75;;;9.35;43.41
71795;BME280;59641;45.188;5.712;2023-02-07T01:35:12;100245.88;;;9.31;43.23
71795;BME280;59641;45.188;5.712;2023-02-07T01:37:37;100244.00;;;9.32;43.41
71795;BME280;59641;45.188;5.712;2023-02-07T01:40:03;100241.34;;;9.32;43.36
71795;BME280;59641;45.188;5.712;2023-02-07T01:42:29;100245.66;;;9.33;43.47
71795;BME280;59641;45.188;5.712;2023-02-07T01:44:59;100237.63;;;9.33;43.30
71795;BME280;59641;45.188;5.712;2023-02-07T01:47:25;100233.72;;;9.35;43.49
71795;BME280;59641;45.188;5.712;2023-02-07T01:49:53;100235.22;;;9.38;43.46
71795;BME280;59641;45.188;5.712;2023-02-07T01:52:25;100235.66;;;9.42;43.35
71795;BME280;59641;45.188;5.712;2023-02-07T01:54:54;100236.31;;;9.44;43.43
71795;BME280;59641;45.188;5.712;2023-02-07T01:57:22;100234.06;;;9.47;43.34
71795;BME280;59641;45.188;5.712;2023-02-07T01:59:50;100241.91;;;9.49;43.36
71795;BME280;59641;45.188;5.712;2023-02-07T02:02:19;100236.56;;;9.49;43.28
71795;BME280;59641;45.188;5.712;2023-02-07T02:04:46;100245.22;;;9.51;43.31
71795;BME280;59641;45.188;5.712;2023-02-07T02:07:12;100253.91;;;9.53;43.34
71795;BME280;59641;45.188;5.712;2023-02-07T02:09:38;100252.88;;;9.54;43.20
71795;BME280;59641;45.188;5.712;2023-02-07T02:31:44;100258.06;;;9.55;43.45
71795;BME280;59641;45.188;5.712;2023-02-07T02:34:22;100264.81;;;9.51;43.36
71795;BME280;59641;45.188;5.712;2023-02-07T02:39:30;100278.84;;;9.53;43.55
71795;BME280;59641;45.188;5.712;2023-02-07T02:42:10;100284.38;;;9.52;43.65
71795;BME280;59641;45.188;5.712;2023-02-07T02:44:51;100290.97;;;9.49;43.60
71795;BME280;59641;45.188;5.712;2023-02-07T02:47:19;100288.28;;;9.49;43.99
71795;BME280;59641;45.188;5.712;2023-02-07T02:49:46;100298.16;;;9.49;43.95
71795;BME280;59641;45.188;5.712;2023-02-07T02:52:12;100294.66;;;9.48;44.08
71795;BME280;59641;45.188;5.712;2023-02-07T02:54:38;100295.50;;;9.49;44.17
71795;BME280;59641;45.188;5.712;2023-02-07T02:57:32;100298.34;;;9.47;44.50
71795;BME280;59641;45.188;5.712;2023-02-07T03:05:49;100315.38;;;9.39;44.68
71795;BME280;59641;45.188;5.712;2023-02-07T03:08:40;100313.25;;;9.35;45.04
71795;BME280;59641;45.188;5.712;2023-02-07T03:11:17;100315.28;;;9.33;45.08
71795;BME280;59641;45.188;5.712;2023-02-07T03:17:07;100334.47;;;9.15;45.64
71795;BME280;59641;45.188;5.712;2023-02-07T03:19:52;100341.09;;;9.04;46.33
71795;BME280;59641;45.188;5.712;2023-02-07T03:22:22;100337.97;;;9.01;46.98
71795;BME280;59641;45.188;5.712;2023-02-07T03:24:52;100343.97;;;9.03;46.59
71795;BME280;59641;45.188;5.712;2023-02-07T03:27:21;100351.38;;;9.01;46.84
71795;BME280;59641;45.188;5.712;2023-02-07T03:29:51;100346.94;;;8.93;47.50
71795;BME280;59641;45.188;5.712;2023-02-07T03:32:28;100346.84;;;8.86;47.59
71795;BME280;59641;45.188;5.712;2023-02-07T03:35:20;100353.78;;;8.81;47.64
71795;BME280;59641;45.188;5.712;2023-02-07T03:37:54;100350.16;;;8.73;48.53
71795;BME280;59641;45.188;5.712;2023-02-07T03:40:22;100358.75;;;8.69;48.66
71795;BME280;59641;45.188;5.712;2023-02-07T03:42:58;100357.25;;;8.66;49.48
71795;BME280;59641;45.188;5.712;2023-02-07T03:45:28;100366.13;;;8.67;49.56
71795;BME280;59641;45.188;5.712;2023-02-07T03:47:54;100367.13;;;8.66;50.13
71795;BME280;59641;45.188;5.712;2023-02-07T03:50:19;100374.31;;;8.65;50.13
71795;BME280;59641;45.188;5.712;2023-02-07T03:52:45;100380.88;;;8.63;49.24
71795;BME280;59641;45.188;5.712;2023-02-07T03:55:10;100387.63;;;8.59;49.61
71795;BME280;59641;45.188;5.712;2023-02-07T03:57:36;100392.38;;;8.48;50.19
71795;BME280;59641;45.188;5.712;2023-02-07T04:00:03;100396.09;;;8.39;50.50
71795;BME280;59641;45.188;5.712;2023-02-07T04:02:29;100398.31;;;8.36;50.33
71795;BME280;59641;45.188;5.712;2023-02-07T04:04:55;100392.31;;;8.33;50.94
71795;BME280;59641;45.188;5.712;2023-02-07T04:07:20;100398.84;;;8.31;50.77
71795;BME280;59641;45.188;5.712;2023-02-07T04:09:45;100397.53;;;8.27;51.13
71795;BME280;59641;45.188;5.712;2023-02-07T04:12:11;100399.56;;;8.25;51.68
71795;BME280;59641;45.188;5.712;2023-02-07T04:14:36;100399.91;;;8.22;51.69
71795;BME280;59641;45.188;5.712;2023-02-07T04:17:01;100402.31;;;8.17;51.94
71795;BME280;59641;45.188;5.712;2023-02-07T04:19:27;100397.31;;;8.14;52.04
71795;BME280;59641;45.188;5.712;2023-02-07T04:21:52;100406.69;;;8.09;52.36
71795;BME280;59641;45.188;5.712;2023-02-07T04:24:18;100407.88;;;8.07;52.39
71795;BME280;59641;45.188;5.712;2023-02-07T04:26:43;100419.59;;;8.06;52.20
71795;BME280;59641;45.188;5.712;2023-02-07T04:29:08;100413.75;;;8.02;52.01
71795;BME280;59641;45.188;5.712;2023-02-07T04:31:34;100424.16;;;7.97;52.00
71795;BME280;59641;45.188;5.712;2023-02-07T04:33:59;100432.41;;;7.87;52.09
71795;BME280;59641;45.188;5.712;2023-02-07T04:36:25;100438.13;;;7.76;52.81
71795;BME280;59641;45.188;5.712;2023-02-07T04:38:53;100435.16;;;7.71;53.34
71795;BME280;59641;45.188;5.712;2023-02-07T04:41:18;100435.31;;;7.69;53.68
71795;BME280;59641;45.188;5.712;2023-02-07T04:43:44;100446.66;;;7.72;53.69
71795;BME280;59641;45.188;5.712;2023-02-07T04:46:09;100437.16;;;7.69;53.38
71795;BME280;59641;45.188;5.712;2023-02-07T04:48:35;100445.19;;;7.69;53.88
71795;BME280;59641;45.188;5.712;2023-02-07T04:51:01;100449.53;;;7.70;54.23
71795;BME280;59641;45.188;5.712;2023-02-07T04:53:27;100456.38;;;7.73;53.97
71795;BME280;59641;45.188;5.712;2023-02-07T04:55:53;100455.53;;;7.72;54.47
71795;BME280;59641;45.188;5.712;2023-02-07T04:58:20;100458.03;;;7.74;54.38
71795;BME280;59641;45.188;5.712;2023-02-07T05:00:45;100456.84;;;7.76;53.84
71795;BME280;59641;45.188;5.712;2023-02-07T05:03:11;100452.22;;;7.70;54.29
71795;BME280;59641;45.188;5.712;2023-02-07T05:05:38;100446.19;;;7.68;54.74
71795;BME280;59641;45.188;5.712;2023-02-07T05:08:04;100452.22;;;7.70;55.05
71795;BME280;59641;45.188;5.712;2023-02-07T05:10:30;100452.22;;;7.70;54.67
71795;BME280;59641;45.188;5.712;2023-02-07T05:12:55;100449.34;;;7.72;55.51
71795;BME280;59641;45.188;5.712;2023-02-07T05:15:20;100452.88;;;7.72;55.39
71795;BME280;59641;45.188;5.712;2023-02-07T05:17:46;100455.34;;;7.74;55.06
71795;BME280;59641;45.188;5.712;2023-02-07T05:20:11;100469.53;;;7.74;55.14
71795;BME280;59641;45.188;5.712;2023-02-07T05:22:36;100482.06;;;7.74;54.68
71795;BME280;59641;45.188;5.712;2023-02-07T05:25:02;100487.75;;;7.71;55.19
71795;BME280;59641;45.188;5.712;2023-02-07T05:27:28;100493.28;;;7.69;54.86
71795;BME280;59641;45.188;5.712;2023-02-07T05:29:53;100496.97;;;7.68;55.19
71795;BME280;59641;45.188;5.712;2023-02-07T05:32:18;100495.28;;;7.67;55.42
71795;BME280;59641;45.188;5.712;2023-02-07T05:35:02;100499.63;;;7.68;55.58
71795;BME280;59641;45.188;5.712;2023-02-07T05:37:28;100507.66;;;7.68;55.21
71795;BME280;59641;45.188;5.712;2023-02-07T05:39:53;100504.97;;;7.68;55.52
71795;BME280;59641;45.188;5.712;2023-02-07T05:42:18;100517.50;;;7.67;55.31
71795;BME280;59641;45.188;5.712;2023-02-07T05:44:44;100513.16;;;7.66;55.73
71795;BME280;59641;45.188;5.712;2023-02-07T05:47:10;100524.84;;;7.65;55.63
71795;BME280;59641;45.188;5.712;2023-02-07T05:49:35;100529.03;;;7.68;55.17
71795;BME280;59641;45.188;5.712;2023-02-07T05:52:01;100531.03;;;7.66;55.55
71795;BME280;59641;45.188;5.712;2023-02-07T05:54:27;100532.03;;;7.65;55.83
71795;BME280;59641;45.188;5.712;2023-02-07T05:56:52;100534.88;;;7.63;55.67
71795;BME280;59641;45.188;5.712;2023-02-07T05:59:18;100547.56;;;7.61;55.72
71795;BME280;59641;45.188;5.712;2023-02-07T06:01:43;100542.38;;;7.60;55.95
71795;BME280;59641;45.188;5.712;2023-02-07T06:04:08;100547.56;;;7.61;56.24
71795;BME280;59641;45.188;5.712;2023-02-07T06:06:34;100553.72;;;7.62;55.84
71795;BME280;59641;45.188;5.712;2023-02-07T06:08:59;100559.91;;;7.62;55.92
71795;BME280;59641;45.188;5.712;2023-02-07T06:11:25;100561.75;;;7.62;55.78
71795;BME280;59641;45.188;5.712;2023-02-07T06:13:50;100561.09;;;7.60;56.08
71795;BME280;59641;45.188;5.712;2023-02-07T06:16:15;100578.13;;;7.59;55.97
71795;BME280;59641;45.188;5.712;2023-02-07T06:18:41;100580.97;;;7.57;56.39
71795;BME280;59641;45.188;5.712;2023-02-07T06:21:06;100587.31;;;7.56;56.33
71795;BME280;59641;45.188;5.712;2023-02-07T06:23:31;100587.31;;;7.56;56.57
71795;BME280;59641;45.188;5.712;2023-02-07T06:25:57;100594.31;;;7.57;56.70
71795;BME280;59641;45.188;5.712;2023-02-07T06:28:22;100599.50;;;7.59;56.70
71795;BME280;59641;45.188;5.712;2023-02-07T06:30:50;100603.00;;;7.59;56.19
71795;BME280;59641;45.188;5.712;2023-02-07T06:33:15;100611.00;;;7.59;56.41
71795;BME280;59641;45.188;5.712;2023-02-07T06:35:41;100604.84;;;7.59;56.43
71795;BME280;59641;45.188;5.712;2023-02-07T06:38:14;100607.66;;;7.57;56.17
71795;BME280;59641;45.188;5.712;2023-02-07T06:40:40;100609.03;;;7.53;56.50
71795;BME280;59641;45.188;5.712;2023-02-07T06:43:06;100609.19;;;7.52;56.37
71795;BME280;59641;45.188;5.712;2023-02-07T06:45:32;100610.22;;;7.51;56.79
71795;BME280;59641;45.188;5.712;2023-02-07T06:47:57;100605.84;;;7.50;57.01
71795;BME280;59641;45.188;5.712;2023-02-07T06:50:22;100617.19;;;7.52;57.07
71795;BME280;59641;45.188;5.712;2023-02-07T06:52:48;100616.19;;;7.53;57.22
71795;BME280;59641;45.188;5.712;2023-02-07T06:55:13;100618.53;;;7.56;56.91
71795;BME280;59641;45.188;5.712;2023-02-07T06:57:38;100632.72;;;7.56;57.03
71795;BME280;59641;45.188;5.712;2023-02-07T07:00:04;100632.72;;;7.56;56.95
71795;BME280;59641;45.188;5.712;2023-02-07T09:57:04;100839.13;;;7.99;58.11
71795;BME280;59641;45.188;5.712;2023-02-07T10:04:57;100837.47;;;8.06;58.00
71795;BME280;59641;45.188;5.712;2023-02-07T10:07:24;100838.13;;;8.08;57.89
71795;BME280;59641;45.188;5.712;2023-02-07T10:09:49;100840.13;;;8.06;57.86
71795;BME280;59641;45.188;5.712;2023-02-07T10:18:37;100852.50;;;8.16;57.94
71795;BME280;59641;45.188;5.712;2023-02-07T10:26:36;100840.13;;;8.23;57.75
71795;BME280;59641;45.188;5.712;2023-02-07T10:31:53;100827.25;;;8.26;57.54
71795;BME280;59641;45.188;5.712;2023-02-07T10:34:26;100821.53;;;8.29;57.34
71795;BME280;59641;45.188;5.712;2023-02-07T10:36:55;100817.88;;;8.30;57.10
71795;BME280;59641;45.188;5.712;2023-02-07T10:39:30;100817.69;;;8.32;56.93
71795;BME280;59641;45.188;5.712;2023-02-07T10:41:57;100822.22;;;8.31;56.83
71795;BME280;59641;45.188;5.712;2023-02-07T10:44:24;100818.56;;;8.32;56.76
71795;BME280;59641;45.188;5.712;2023-02-07T10:47:00;100818.56;;;8.32;56.38
71795;BME280;59641;45.188;5.712;2023-02-07T10:49:34;100815.88;;;8.32;56.41
71795;BME280;59641;45.188;5.712;2023-02-07T10:54:57;100810.53;;;8.41;56.85
71795;BME280;59641;45.188;5.712;2023-02-07T10:57:24;100806.53;;;8.45;56.63
71795;BME280;59641;45.188;5.712;2023-02-07T11:00:20;100801.50;;;8.50;56.55
71795;BME280;59641;45.188;5.712;2023-02-07T11:02:51;100808.00;;;8.56;56.52
71795;BME280;59641;45.188;5.712;2023-02-07T11:07:59;100806.13;;;8.64;56.22
71795;BME280;59641;45.188;5.712;2023-02-07T11:10:37;100802.94;;;8.69;56.06
71795;BME280;59641;45.188;5.712;2023-02-07T11:13:08;100800.94;;;8.71;56.36
71795;BME280;59641;45.188;5.712;2023-02-07T11:15:44;100799.41;;;8.77;56.16
71795;BME280;59641;45.188;5.712;2023-02-07T11:20:48;100791.53;;;8.83;55.67
71795;BME280;59641;45.188;5.712;2023-02-07T11:23:17;100791.00;;;8.88;55.51
71795;BME280;59641;45.188;5.712;2023-02-07T11:25:44;100784.78;;;8.95;55.43
71795;BME280;59641;45.188;5.712;2023-02-07T11:28:25;100788.28;;;8.96;55.18
71795;BME280;59641;45.188;5.712;2023-02-07T11:30:55;100781.91;;;8.97;55.04
71795;BME280;59641;45.188;5.712;2023-02-07T11:33:26;100781.75;;;8.99;54.48
71795;BME280;59641;45.188;5.712;2023-02-07T11:38:31;100773.69;;;8.99;54.46
71795;BME280;59641;45.188;5.712;2023-02-07T11:41:00;100777.22;;;8.99;53.83
71795;BME280;59641;45.188;5.712;2023-02-07T11:43:31;100773.19;;;9.03;54.02
71795;BME280;59641;45.188;5.712;2023-02-07T11:46:06;100769.81;;;9.09;53.57
71795;BME280;59641;45.188;5.712;2023-02-07T11:48:36;100760.41;;;9.13;52.34
71795;BME280;59641;45.188;5.712;2023-02-07T11:51:06;100754.53;;;9.18;53.04
71795;BME280;59641;45.188;5.712;2023-02-07T11:53:39;100756.66;;;9.23;53.01
71795;BME280;59641;45.188;5.712;2023-02-07T11:56:16;100749.13;;;9.26;52.85
71795;BME280;59641;45.188;5.712;2023-02-07T11:58:44;100745.06;;;9.30;52.04
71795;BME280;59641;45.188;5.712;2023-02-07T12:01:16;100748.59;;;9.31;51.82
71795;BME280;59641;45.188;5.712;2023-02-07T12:04:14;100747.09;;;9.28;51.49
71795;BME280;59641;45.188;5.712;2023-02-07T12:09:48;100741.09;;;9.26;50.99
71795;BME280;59641;45.188;5.712;2023-02-07T12:14:58;100730.69;;;9.31;50.54
71795;BME280;59641;45.188;5.712;2023-02-07T12:17:53;100732.47;;;9.39;50.79
71795;BME280;59641;45.188;5.712;2023-02-07T12:20:31;100723.53;;;9.47;50.79
71795;BME280;59641;45.188;5.712;2023-02-07T12:25:41;100721.75;;;9.62;50.73
71795;BME280;59641;45.188;5.712;2023-02-07T12:28:24;100714.81;;;9.68;49.73
71795;BME280;59641;45.188;5.712;2023-02-07T12:30:52;100724.63;;;9.75;49.77
71795;BME280;59641;45.188;5.712;2023-02-07T12:33:49;100710.31;;;9.83;49.35
71795;BME280;59641;45.188;5.712;2023-02-07T12:36:35;100708.78;;;9.89;49.65
71795;BME280;59641;45.188;5.712;2023-02-07T12:39:12;100705.06;;;9.90;48.51
71795;BME280;59641;45.188;5.712;2023-02-07T12:41:49;100707.38;;;9.93;47.62
71795;BME280;59641;45.188;5.712;2023-02-07T12:44:25;100703.47;;;9.95;47.67
71795;BME280;59641;45.188;5.712;2023-02-07T12:47:16;100706.66;;;9.99;47.31
71795;BME280;59641;45.188;5.712;2023-02-07T12:49:57;100693.69;;;10.02;47.60
71795;BME280;59641;45.188;5.712;2023-02-07T13:01:17;100669.94;;;10.14;45.40
71795;BME280;59641;45.188;5.712;2023-02-07T13:06:30;100661.06;;;10.14;45.29
71795;BME280;59641;45.188;5.712;2023-02-07T13:09:09;100661.06;;;10.14;45.17
71795;BME280;59641;45.188;5.712;2023-02-07T13:22:47;100639.13;;;10.25;42.31
71795;BME280;59641;45.188;5.712;2023-02-07T13:25:25;100629.06;;;10.27;43.00
71795;BME280;59641;45.188;5.712;2023-02-07T13:27:54;100627.88;;;10.30;42.52
71795;BME280;59641;45.188;5.712;2023-02-07T13:30:22;100627.50;;;10.33;41.22
71795;BME280;59641;45.188;5.712;2023-02-07T13:32:49;100624.44;;;10.36;41.81
71795;BME280;59641;45.188;5.712;2023-02-07T13:35:22;100624.69;;;10.41;42.56
71795;BME280;59641;45.188;5.712;2023-02-07T13:55:04;100629.56;;;10.67;39.67
71795;BME280;59641;45.188;5.712;2023-02-07T14:02:51;100647.38;;;10.75;39.46
71795;BME280;59641;45.188;5.712;2023-02-07T14:05:38;100647.03;;;10.78;40.70
71795;BME280;59641;45.188;5.712;2023-02-07T14:10:41;100651.38;;;10.79;41.54
71795;BME280;59641;45.188;5.712;2023-02-07T14:18:47;100662.94;;;10.79;42.29
71795;BME280;59641;45.188;5.712;2023-02-07T14:31:54;100659.59;;;10.77;41.87
71795;BME280;59641;45.188;5.712;2023-02-07T14:34:21;100665.63;;;10.79;41.88
71795;BME280;59641;45.188;5.712;2023-02-07T14:36:49;100661.94;;;10.80;41.98
71795;BME280;59641;45.188;5.712;2023-02-07T14:41:46;100650.16;;;10.81;41.46
71795;BME280;59641;45.188;5.712;2023-02-07T14:44:42;100657.38;;;10.81;41.07
71795;BME280;59641;45.188;5.712;2023-02-07T14:47:24;100644.97;;;10.80;41.16
71795;BME280;59641;45.188;5.712;2023-02-07T14:49:54;100652.84;;;10.81;41.10
71795;BME280;59641;45.188;5.712;2023-02-07T14:52:32;100655.34;;;10.83;40.62
71795;BME280;59641;45.188;5.712;2023-02-07T14:55:03;100646.81;;;10.79;40.34
71795;BME280;59641;45.188;5.712;2023-02-07T14:57:37;100644.97;;;10.80;40.74
71795;BME280;59641;45.188;5.712;2023-02-07T15:02:51;100646.00;;;10.79;41.11
71795;BME280;59641;45.188;5.712;2023-02-07T15:05:26;100644.53;;;10.76;41.13
71795;BME280;59641;45.188;5.712;2023-02-07T15:08:06;100641.66;;;10.78;41.01
71795;BME280;59641;45.188;5.712;2023-02-07T15:10:40;100644.97;;;10.80;41.16
71795;BME280;59641;45.188;5.712;2023-02-07T15:18:46;100656.00;;;10.85;41.92
71795;BME280;59641;45.188;5.712;2023-02-07T15:21:18;100662.19;;;10.85;41.78
71795;BME280;59641;45.188;5.712;2023-02-07T15:23:50;100666.53;;;10.86;41.87
71795;BME280;59641;45.188;5.712;2023-02-07T15:26:18;100662.84;;;10.87;41.53
71795;BME280;59641;45.188;5.712;2023-02-07T15:28:44;100668.00;;;10.89;42.05
71795;BME280;59641;45.188;5.712;2023-02-07T15:31:14;100667.16;;;10.88;42.00
71795;BME280;59641;45.188;5.712;2023-02-07T15:33:54;100668.00;;;10.89;41.91
71795;BME280;59641;45.188;5.712;2023-02-07T15:38:54;100663.47;;;10.90;41.57
71795;BME280;59641;45.188;5.712;2023-02-07T15:41:20;100663.66;;;10.88;41.66
71795;BME280;59641;45.188;5.712;2023-02-07T15:46:22;100660.97;;;10.88;41.86
71795;BME280;59641;45.188;5.712;2023-02-07T15:48:55;100662.63;;;10.89;42.09
71795;BME280;59641;45.188;5.712;2023-02-07T15:51:27;100661.16;;;10.86;41.98
71795;BME280;59641;45.188;5.712;2023-02-07T15:53:58;100663.84;;;10.86;41.61
71795;BME280;59641;45.188;5.712;2023-02-07T15:56:25;100663.19;;;10.84;42.10
71795;BME280;59641;45.188;5.712;2023-02-07T15:58:54;100664.88;;;10.85;42.19
71795;BME280;59641;45.188;5.712;2023-02-07T16:01:26;100663.19;;;10.84;42.21
71795;BME280;59641;45.188;5.712;2023-02-07T16:03:54;100673.31;;;10.82;42.08
71795;BME280;59641;45.188;5.712;2023-02-07T16:06:21;100664.78;;;10.79;42.25
71795;BME280;59641;45.188;5.712;2023-02-07T16:08:49;100666.00;;;10.76;42.30
71795;BME280;59641;45.188;5.712;2023-02-07T16:13:59;100675.66;;;10.71;42.14
71795;BME280;59641;45.188;5.712;2023-02-07T16:16:28;100673.31;;;10.68;42.43
71795;BME280;59641;45.188;5.712;2023-02-07T16:21:42;100671.03;;;10.64;42.45
71795;BME280;59641;45.188;5.712;2023-02-07T16:24:19;100679.09;;;10.64;42.42
71795;BME280;59641;45.188;5.712;2023-02-07T16:26:46;100678.25;;;10.64;42.38
71795;BME280;59641;45.188;5.712;2023-02-07T16:29:19;100675.97;;;10.61;42.27
71795;BME280;59641;45.188;5.712;2023-02-07T16:31:46;100671.78;;;10.58;42.45
71795;BME280;59641;45.188;5.712;2023-02-07T16:34:14;100676.13;;;10.59;42.16
71795;BME280;59641;45.188;5.712;2023-02-07T16:36:40;100675.31;;;10.59;42.50
71795;BME280;59641;45.188;5.712;2023-02-07T16:39:06;100671.78;;;10.58;42.69
71795;BME280;59641;45.188;5.712;2023-02-07T16:41:33;100672.41;;;10.60;42.45
71795;BME280;59641;45.188;5.712;2023-02-07T16:44:05;100669.72;;;10.60;42.45
71795;BME280;59641;45.188;5.712;2023-02-07T16:46:32;100679.47;;;10.61;42.65
71795;BME280;59641;45.188;5.712;2023-02-07T16:48:58;100689.56;;;10.59;42.23
71795;BME280;59641;45.188;5.712;2023-02-07T16:51:23;100683.16;;;10.60;42.58
71795;BME280;59641;45.188;5.712;2023-02-07T16:53:49;100687.91;;;10.58;42.58
71795;BME280;59641;45.188;5.712;2023-02-07T16:56:23;100691.41;;;10.59;42.72
71795;BME280;59641;45.188;5.712;2023-02-07T16:58:49;100692.41;;;10.58;42.69
71795;BME280;59641;45.188;5.712;2023-02-07T17:01:18;100698.81;;;10.57;42.53
71795;BME280;59641;45.188;5.712;2023-02-07T17:03:44;100700.66;;;10.56;42.56
71795;BME280;59641;45.188;5.712;2023-02-07T17:06:14;100699.47;;;10.59;42.91
71795;BME280;59641;45.188;5.712;2023-02-07T17:08:40;100694.09;;;10.59;42.83
71795;BME280;59641;45.188;5.712;2023-02-07T17:11:06;100699.47;;;10.59;42.73
71795;BME280;59641;45.188;5.712;2023-02-07T17:13:31;100695.94;;;10.58;42.73
71795;BME280;59641;45.188;5.712;2023-02-07T17:15:57;100705.84;;;10.58;42.59
71795;BME280;59641;45.188;5.712;2023-02-07T17:18:24;100714.91;;;10.57;42.97
71795;BME280;59641;45.188;5.712;2023-02-07T17:20:50;100709.38;;;10.58;43.27
71795;BME280;59641;45.188;5.712;2023-02-07T17:23:16;100713.06;;;10.57;43.16
71795;BME280;59641;45.188;5.712;2023-02-07T17:25:42;100711.19;;;10.58;43.10
71795;BME280;59641;45.188;5.712;2023-02-07T17:28:11;100709.56;;;10.57;43.16
71795;BME280;59641;45.188;5.712;2023-02-07T17:30:40;100707.25;;;10.54;43.08
71795;BME280;59641;45.188;5.712;2023-02-07T17:33:07;100708.25;;;10.53;43.14
71795;BME280;59641;45.188;5.712;2023-02-07T17:35:33;100704.91;;;10.51;43.19
71795;BME280;59641;45.188;5.712;2023-02-07T17:37:59;100713.81;;;10.51;43.46
71795;BME280;59641;45.188;5.712;2023-02-07T17:40:33;100711.13;;;10.51;43.15
71795;BME280;59641;45.188;5.712;2023-02-07T17:42:59;100714.16;;;10.48;43.14
71795;BME280;59641;45.188;5.712;2023-02-07T17:45:26;100718.53;;;10.49;43.13
71795;BME280;59641;45.188;5.712;2023-02-07T17:47:52;100710.66;;;10.48;43.34
71795;BME280;59641;45.188;5.712;2023-02-07T17:52:47;100715.94;;;10.41;43.15
71795;BME280;59641;45.188;5.712;2023-02-07T17:55:13;100723.34;;;10.39;42.72
71795;BME280;59641;45.188;5.712;2023-02-07T17:57:39;100722.50;;;10.38;42.85
71795;BME280;59641;45.188;5.712;2023-02-07T18:00:13;100720.38;;;10.34;42.59
71795;BME280;59641;45.188;5.712;2023-02-07T18:02:40;100728.63;;;10.32;42.58
71795;BME280;59641;45.188;5.712;2023-02-07T18:05:05;100730.44;;;10.32;42.63
71795;BME280;59641;45.188;5.712;2023-02-07T18:07:31;100720.09;;;10.29;42.67
71795;BME280;59641;45.188;5.712;2023-02-07T18:09:56;100720.44;;;10.26;42.26
71795;BME280;59641;45.188;5.712;2023-02-07T18:12:22;100727.84;;;10.23;42.36
71795;BME280;59641;45.188;5.712;2023-02-07T18:14:47;100728.38;;;10.19;42.41
71795;BME280;59641;45.188;5.712;2023-02-07T18:17:12;100730.78;;;10.14;42.43
71795;BME280;59641;45.188;5.712;2023-02-07T18:19:38;100733.66;;;10.12;42.43
71795;BME280;59641;45.188;5.712;2023-02-07T18:22:03;100739.22;;;10.11;42.59
71795;BME280;59641;45.188;5.712;2023-02-07T18:24:29;100739.38;;;10.09;42.63
71795;BME280;59641;45.188;5.712;2023-02-07T18:26:54;100733.56;;;10.06;42.61
71795;BME280;59641;45.188;5.712;2023-02-07T18:29:19;100734.56;;;10.05;42.35
71795;BME280;59641;45.188;5.712;2023-02-07T18:31:45;100738.44;;;10.02;42.79
71795;BME280;59641;45.188;5.712;2023-02-07T18:34:10;100729.09;;;9.98;42.43
71795;BME280;59641;45.188;5.712;2023-02-07T18:36:35;100730.50;;;9.94;42.46
71795;BME280;59641;45.188;5.712;2023-02-07T18:39:05;100728.66;;;9.94;42.38